createdAt,value
2017-04-18T03:01:05.233Z,1020.33
2017-04-18T03:01:30.810Z,1020.34
2017-04-18T03:01:56.374Z,1020.34
2017-04-18T03:02:21.939Z,1020.33
2017-04-18T03:02:47.600Z,1020.33
2017-04-18T03:03:13.172Z,1020.35
2017-04-18T03:03:38.721Z,1020.37
2017-04-18T03:04:04.378Z,1020.41
2017-04-18T03:04:29.944Z,1020.38
2017-04-18T03:04:55.484Z,1020.38
2017-04-18T03:05:21.033Z,1020.43
2017-04-18T03:05:46.597Z,1020.39
2017-04-18T03:06:12.144Z,1020.4
2017-04-18T03:06:37.700Z,1020.4
2017-04-18T03:07:03.249Z,1020.41
2017-04-18T03:07:28.793Z,1020.41
2017-04-18T03:07:54.352Z,1020.39
2017-04-18T03:08:19.928Z,1020.4
2017-04-18T03:08:45.484Z,1020.37
2017-04-18T03:09:11.046Z,1020.43
2017-04-18T03:09:36.599Z,1020.41
2017-04-18T03:10:02.164Z,1020.43
2017-04-18T03:10:27.744Z,1020.45
2017-04-18T03:10:53.324Z,1020.45
2017-04-18T03:11:18.883Z,1020.46
2017-04-18T03:11:44.421Z,1020.5
2017-04-18T03:12:10.010Z,1020.52
2017-04-18T03:12:35.564Z,1020.54
2017-04-18T03:13:01.134Z,1020.53
2017-04-18T03:13:26.695Z,1020.45
2017-04-18T03:13:52.283Z,1020.48
2017-04-18T03:14:17.846Z,1020.49
2017-04-18T03:14:43.465Z,1020.47
2017-04-18T03:15:09.025Z,1020.45
2017-04-18T03:15:34.676Z,1020.47
2017-04-18T03:16:00.313Z,1020.47
2017-04-18T03:16:25.881Z,1020.45
2017-04-18T03:16:51.472Z,1020.42
2017-04-18T03:17:17.111Z,1020.42
2017-04-18T03:17:42.663Z,1020.46
2017-04-18T03:18:08.231Z,1020.5
2017-04-18T03:18:33.794Z,1020.48
2017-04-18T03:18:59.366Z,1020.45
2017-04-18T03:19:24.933Z,1020.45
2017-04-18T03:19:50.512Z,1020.45
2017-04-18T03:20:16.067Z,1020.46
2017-04-18T03:20:41.629Z,1020.47
2017-04-18T03:21:07.192Z,1020.45
2017-04-18T03:21:32.879Z,1020.45
2017-04-18T03:21:58.435Z,1020.45
2017-04-18T03:22:23.989Z,1020.45
2017-04-18T03:22:49.704Z,1020.5
2017-04-18T03:23:15.272Z,1020.51
2017-04-18T03:23:40.943Z,1020.49
2017-04-18T03:24:06.592Z,1020.48
2017-04-18T03:24:32.165Z,1020.51
2017-04-18T03:24:57.759Z,1020.49
2017-04-18T03:25:23.320Z,1020.53
2017-04-18T03:25:48.873Z,1020.59
2017-04-18T03:26:14.433Z,1020.55
2017-04-18T03:26:40.002Z,1020.58
2017-04-18T03:27:05.642Z,1020.57
2017-04-18T03:27:31.202Z,1020.63
2017-04-18T03:27:56.759Z,1020.62
2017-04-18T03:28:22.326Z,1020.62
2017-04-18T03:28:47.891Z,1020.62
2017-04-18T03:29:13.524Z,1020.59
2017-04-18T03:29:39.275Z,1020.65
2017-04-18T03:30:04.850Z,1020.65
2017-04-18T03:30:30.413Z,1020.65
2017-04-18T03:30:55.993Z,1020.7
2017-04-18T03:31:21.564Z,1020.67
2017-04-18T03:31:47.131Z,1020.71
2017-04-18T03:32:12.683Z,1020.7
2017-04-18T03:32:38.242Z,1020.73
2017-04-18T03:33:03.807Z,1020.68
2017-04-18T03:33:29.475Z,1020.71
2017-04-18T03:33:55.033Z,1020.7
2017-04-18T03:34:20.621Z,1020.72
2017-04-18T03:34:46.189Z,1020.72
2017-04-18T03:35:11.880Z,1020.75
2017-04-18T03:35:37.455Z,1020.71
2017-04-18T03:36:03.034Z,1020.69
2017-04-18T03:36:28.684Z,1020.76
2017-04-18T03:36:54.250Z,1020.71
2017-04-18T03:37:19.885Z,1020.76
2017-04-18T03:37:45.459Z,1020.76
2017-04-18T03:38:11.030Z,1020.74
2017-04-18T03:38:36.621Z,1020.75
2017-04-18T03:39:02.309Z,1020.76
2017-04-18T03:39:27.882Z,1020.78
2017-04-18T03:39:53.501Z,1020.81
2017-04-18T03:40:19.095Z,1020.73
2017-04-18T03:40:44.652Z,1020.79
2017-04-18T03:41:10.208Z,1020.78
2017-04-18T03:41:35.849Z,1020.75
2017-04-18T03:42:01.431Z,1020.76
2017-04-18T03:42:27.054Z,1020.75
2017-04-18T03:42:52.602Z,1020.76
2017-04-18T03:43:18.176Z,1020.79
2017-04-18T03:43:43.752Z,1020.8
2017-04-18T03:44:09.320Z,1020.78
2017-04-18T03:44:34.912Z,1020.74
2017-04-18T03:45:00.484Z,1020.79
2017-04-18T03:45:26.128Z,1020.85
2017-04-18T03:45:51.688Z,1020.82
2017-04-18T03:46:17.242Z,1020.78
2017-04-18T03:46:42.804Z,1020.82
2017-04-18T03:47:08.366Z,1020.8
2017-04-18T03:47:33.938Z,1020.82
2017-04-18T03:47:59.498Z,1020.82
2017-04-18T03:48:25.068Z,1020.83
2017-04-18T03:48:50.634Z,1020.87
2017-04-18T03:49:16.232Z,1020.85
2017-04-18T03:49:41.798Z,1020.9
2017-04-18T03:50:07.361Z,1020.89
2017-04-18T03:50:33.073Z,1020.88
2017-04-18T03:50:58.647Z,1020.89
2017-04-18T03:51:24.215Z,1020.91
2017-04-18T03:51:49.832Z,1020.89
2017-04-18T03:52:15.419Z,1020.89
2017-04-18T03:52:40.987Z,1020.91
2017-04-18T03:53:06.546Z,1020.95
2017-04-18T03:53:32.268Z,1020.91
2017-04-18T03:53:57.840Z,1020.93
2017-04-18T03:54:23.404Z,1020.93
2017-04-18T03:54:48.962Z,1020.93
2017-04-18T03:55:14.548Z,1020.93
2017-04-18T03:55:40.121Z,1020.97
2017-04-18T03:56:05.691Z,1020.98
2017-04-18T03:56:31.261Z,1020.98
2017-04-18T03:56:56.830Z,1020.96
2017-04-18T03:57:22.399Z,1020.96
2017-04-18T03:57:47.974Z,1020.95
2017-04-18T03:58:13.545Z,1021.02
2017-04-18T03:58:39.116Z,1021.01
2017-04-18T03:59:04.682Z,1021.04
2017-04-18T03:59:30.304Z,1021
2017-04-18T03:59:55.875Z,1021.06
2017-04-18T04:00:21.434Z,1021.02
2017-04-18T04:00:47.002Z,1021.08
2017-04-18T04:01:12.634Z,1021
2017-04-18T04:01:38.208Z,1021.04
2017-04-18T04:02:03.805Z,1021.01
2017-04-18T04:02:29.423Z,1021.06
2017-04-18T04:02:55.030Z,1021.01
2017-04-18T04:03:20.604Z,1021.02
2017-04-18T04:03:46.177Z,1021.08
2017-04-18T04:04:11.753Z,1021.01
2017-04-18T04:04:37.309Z,1021.08
2017-04-18T04:05:02.865Z,1021.06
2017-04-18T04:05:28.445Z,1021.04
2017-04-18T04:05:53.992Z,1021.05
2017-04-18T04:06:19.555Z,1021.08
2017-04-18T04:06:45.148Z,1021.07
2017-04-18T04:07:10.672Z,1021.09
2017-04-18T04:07:36.233Z,1021.1
2017-04-18T04:08:01.804Z,1021.1
2017-04-18T04:08:27.382Z,1021.09
2017-04-18T04:08:52.973Z,1021.11
2017-04-18T04:09:18.532Z,1021.09
2017-04-18T04:09:44.183Z,1021.11
2017-04-18T04:10:09.790Z,1021.11
2017-04-18T04:10:35.394Z,1021.09
2017-04-18T04:11:00.978Z,1021.12
2017-04-18T04:11:26.574Z,1021.11
2017-04-18T04:11:52.134Z,1021.12
2017-04-18T04:12:17.700Z,1021.12
2017-04-18T04:12:43.402Z,1021.12
2017-04-18T04:13:08.963Z,1021.14
2017-04-18T04:13:34.515Z,1021.13
2017-04-18T04:14:00.071Z,1021.14
2017-04-18T04:14:25.691Z,1021.11
2017-04-18T04:14:51.247Z,1021.15
2017-04-18T04:15:16.825Z,1021.14
2017-04-18T04:15:42.389Z,1021.13
2017-04-18T04:16:07.955Z,1021.12
2017-04-18T04:16:33.571Z,1021.18
2017-04-18T04:16:59.139Z,1021.17
2017-04-18T04:17:24.699Z,1021.18
2017-04-18T04:17:50.292Z,1021.17
2017-04-18T04:18:15.868Z,1021.16
2017-04-18T04:18:41.444Z,1021.17
2017-04-18T04:19:07.067Z,1021.21
2017-04-18T04:19:32.601Z,1021.2
2017-04-18T04:19:58.157Z,1021.17
2017-04-18T04:21:11.904Z,1021.2
2017-04-18T04:21:37.474Z,1021.24
2017-04-18T04:22:03.036Z,1021.24
2017-04-18T04:22:28.610Z,1021.2
2017-04-18T04:22:54.164Z,1021.23
2017-04-18T04:23:19.797Z,1021.23
2017-04-18T04:23:45.453Z,1021.21
2017-04-18T04:24:11.012Z,1021.26
2017-04-18T04:24:36.596Z,1021.25
2017-04-18T04:25:02.156Z,1021.21
2017-04-18T04:25:27.724Z,1021.22
2017-04-18T04:25:53.395Z,1021.2
2017-04-18T04:26:18.963Z,1021.22
2017-04-18T04:26:44.542Z,1021.25
2017-04-18T04:27:10.089Z,1021.26
2017-04-18T04:27:35.643Z,1021.25
2017-04-18T04:28:01.253Z,1021.28
2017-04-18T04:28:26.815Z,1021.25
2017-04-18T04:28:52.383Z,1021.25
2017-04-18T04:29:17.953Z,1021.31
2017-04-18T04:29:43.502Z,1021.29
2017-04-18T04:30:09.060Z,1021.25
2017-04-18T04:30:34.638Z,1021.28
2017-04-18T04:31:00.333Z,1021.3
2017-04-18T04:31:25.902Z,1021.28
2017-04-18T04:31:51.460Z,1021.28
2017-04-18T04:32:17.022Z,1021.32
2017-04-18T04:32:42.591Z,1021.33
2017-04-18T04:33:08.158Z,1021.34
2017-04-18T04:33:33.725Z,1021.38
2017-04-18T04:33:59.293Z,1021.33
2017-04-18T04:34:24.831Z,1021.36
2017-04-18T04:34:50.371Z,1021.31
2017-04-18T04:35:15.941Z,1021.36
2017-04-18T04:35:41.501Z,1021.31
2017-04-18T04:36:07.031Z,1021.34
2017-04-18T04:36:32.578Z,1021.37
2017-04-18T04:36:58.133Z,1021.36
2017-04-18T04:37:23.685Z,1021.4
2017-04-18T04:37:49.268Z,1021.41
2017-04-18T04:38:14.821Z,1021.4
2017-04-18T04:38:40.365Z,1021.42
2017-04-18T04:39:05.906Z,1021.39
2017-04-18T04:39:31.473Z,1021.41
2017-04-18T04:39:57.029Z,1021.42
2017-04-18T04:40:22.602Z,1021.42
2017-04-18T04:40:48.155Z,1021.47
2017-04-18T04:41:13.742Z,1021.44
2017-04-18T04:41:39.403Z,1021.46
2017-04-18T04:42:05.003Z,1021.45
2017-04-18T04:42:30.579Z,1021.5
2017-04-18T04:42:56.140Z,1021.49
2017-04-18T04:43:21.704Z,1021.48
2017-04-18T04:43:47.262Z,1021.51
2017-04-18T04:44:12.844Z,1021.51
2017-04-18T04:44:38.412Z,1021.49
2017-04-18T04:45:03.999Z,1021.55
2017-04-18T04:45:29.618Z,1021.57
2017-04-18T04:45:55.187Z,1021.59
2017-04-18T04:46:20.757Z,1021.56
2017-04-18T04:46:46.402Z,1021.58
2017-04-18T04:47:11.962Z,1021.6
2017-04-18T04:47:37.533Z,1021.55
2017-04-18T04:48:03.097Z,1021.65
2017-04-18T04:48:28.676Z,1021.58
2017-04-18T04:48:54.235Z,1021.62
2017-04-18T04:49:19.805Z,1021.61
2017-04-18T04:49:45.381Z,1021.67
2017-04-18T04:50:10.964Z,1021.6
2017-04-18T04:50:36.571Z,1021.64
2017-04-18T04:51:02.134Z,1021.63
2017-04-18T04:51:27.699Z,1021.66
2017-04-18T04:51:53.265Z,1021.66
2017-04-18T04:52:18.943Z,1021.66
2017-04-18T04:52:44.502Z,1021.67
2017-04-18T04:53:10.070Z,1021.66
2017-04-18T04:53:35.650Z,1021.65
2017-04-18T04:54:01.212Z,1021.64
2017-04-18T04:54:26.824Z,1021.66
2017-04-18T04:54:52.372Z,1021.7
2017-04-18T04:55:17.931Z,1021.68
2017-04-18T04:55:43.500Z,1021.69
2017-04-18T04:56:09.130Z,1021.68
2017-04-18T04:56:34.668Z,1021.71
2017-04-18T04:57:00.213Z,1021.69
2017-04-18T04:57:25.756Z,1021.64
2017-04-18T04:57:51.317Z,1021.64
2017-04-18T04:58:16.904Z,1021.64
2017-04-18T04:58:42.472Z,1021.58
2017-04-18T04:59:08.123Z,1021.68
2017-04-18T04:59:33.682Z,1021.63
2017-04-18T04:59:59.244Z,1021.63
2017-04-18T05:00:24.821Z,1021.65
2017-04-18T05:00:50.381Z,1021.64
2017-04-18T05:01:15.983Z,1021.67
2017-04-18T05:01:41.544Z,1021.7
2017-04-18T05:02:07.110Z,1021.72
2017-04-18T05:02:32.667Z,1021.81
2017-04-18T05:02:58.249Z,1021.83
2017-04-18T05:03:23.831Z,1021.82
2017-04-18T05:03:49.398Z,1021.87
2017-04-18T05:04:14.965Z,1021.85
2017-04-18T05:04:40.494Z,1021.9
2017-04-18T05:05:06.052Z,1021.87
2017-04-18T05:05:31.630Z,1021.9
2017-04-18T05:05:57.179Z,1021.91
2017-04-18T05:06:22.752Z,1021.93
2017-04-18T05:06:48.338Z,1021.94
2017-04-18T05:07:13.976Z,1021.92
2017-04-18T05:07:39.542Z,1021.92
2017-04-18T05:08:05.123Z,1021.93
2017-04-18T05:08:30.714Z,1021.94
2017-04-18T05:08:56.314Z,1021.96
2017-04-18T05:09:21.875Z,1021.99
2017-04-18T05:09:47.453Z,1021.99
2017-04-18T05:10:13.051Z,1021.99
2017-04-18T05:10:38.635Z,1022.02
2017-04-18T05:11:04.207Z,1021.98
2017-04-18T05:11:29.774Z,1022.03
2017-04-18T05:11:55.348Z,1022
2017-04-18T05:12:20.929Z,1022.02
2017-04-18T05:12:46.491Z,1022.03
2017-04-18T05:13:12.085Z,1022.01
2017-04-18T05:13:37.638Z,1022.04
2017-04-18T05:14:03.270Z,1022.02
2017-04-18T05:14:28.843Z,1022.03
2017-04-18T05:14:54.403Z,1022.07
2017-04-18T05:15:19.997Z,1022.04
2017-04-18T05:15:45.605Z,1022.04
2017-04-18T05:16:11.192Z,1022.09
2017-04-18T05:16:36.747Z,1022.08
2017-04-18T05:17:02.303Z,1022.09
2017-04-18T05:17:27.852Z,1022.08
2017-04-18T05:17:53.411Z,1022.09
2017-04-18T05:18:19.013Z,1022.08
2017-04-18T05:18:44.581Z,1022.09
2017-04-18T05:19:10.157Z,1022.11
2017-04-18T05:19:35.739Z,1022.1
2017-04-18T05:20:01.305Z,1022.1
2017-04-18T05:20:26.872Z,1022.13
2017-04-18T05:20:52.454Z,1022.14
2017-04-18T05:21:18.034Z,1022.12
2017-04-18T05:21:43.603Z,1022.12
2017-04-18T05:22:09.167Z,1022.12
2017-04-18T05:22:34.742Z,1022.12
2017-04-18T05:23:00.373Z,1022.14
2017-04-18T05:23:25.952Z,1022.18
2017-04-18T05:23:51.525Z,1022.2
2017-04-18T05:24:17.086Z,1022.15
2017-04-18T05:24:42.676Z,1022.18
2017-04-18T05:25:08.249Z,1022.2
2017-04-18T05:25:33.831Z,1022.23
2017-04-18T05:26:42.639Z,1022.25
2017-04-18T05:27:08.207Z,1022.2
2017-04-18T05:27:33.764Z,1022.25
2017-04-18T05:27:59.317Z,1022.24
2017-04-18T05:28:24.873Z,1022.21
2017-04-18T05:28:50.490Z,1022.24
2017-04-18T05:29:16.070Z,1022.25
2017-04-18T05:29:41.659Z,1022.29
2017-04-18T05:30:07.246Z,1022.28
2017-04-18T05:30:32.811Z,1022.28
2017-04-18T05:30:58.450Z,1022.31
2017-04-18T05:31:24.019Z,1022.33
2017-04-18T05:31:49.694Z,1022.33
2017-04-18T05:32:15.275Z,1022.37
2017-04-18T05:32:40.842Z,1022.35
2017-04-18T05:33:06.486Z,1022.38
2017-04-18T05:33:32.055Z,1022.33
2017-04-18T05:33:57.627Z,1022.37
2017-04-18T05:34:23.203Z,1022.35
2017-04-18T05:34:48.766Z,1022.34
2017-04-18T05:35:14.337Z,1022.35
2017-04-18T05:35:39.899Z,1022.37
2017-04-18T05:36:05.472Z,1022.36
2017-04-18T05:36:31.105Z,1022.36
2017-04-18T05:36:56.678Z,1022.36
2017-04-18T05:37:22.243Z,1022.41
2017-04-18T05:37:47.812Z,1022.4
2017-04-18T05:38:13.384Z,1022.41
2017-04-18T05:38:38.951Z,1022.39
2017-04-18T05:39:04.513Z,1022.4
2017-04-18T05:39:30.093Z,1022.41
2017-04-18T05:39:55.681Z,1022.42
2017-04-18T05:40:21.253Z,1022.4
2017-04-18T05:40:46.824Z,1022.47
2017-04-18T05:41:12.388Z,1022.44
2017-04-18T05:41:37.949Z,1022.47
2017-04-18T05:42:03.519Z,1022.4
2017-04-18T05:42:29.074Z,1022.47
2017-04-18T05:42:54.635Z,1022.49
2017-04-18T05:43:20.193Z,1022.44
2017-04-18T05:43:45.762Z,1022.48
2017-04-18T05:44:11.393Z,1022.49
2017-04-18T05:44:36.953Z,1022.5
2017-04-18T05:45:02.522Z,1022.57
2017-04-18T05:45:28.159Z,1022.59
2017-04-18T05:45:53.819Z,1022.51
2017-04-18T05:46:19.382Z,1022.52
2017-04-18T05:46:44.941Z,1022.51
2017-04-18T05:47:10.612Z,1022.55
2017-04-18T05:47:36.203Z,1022.54
2017-04-18T05:48:01.771Z,1022.53
2017-04-18T05:48:27.375Z,1022.55
2017-04-18T05:48:52.994Z,1022.51
2017-04-18T05:49:18.564Z,1022.53
2017-04-18T05:49:44.147Z,1022.57
2017-04-18T05:50:09.871Z,1022.57
2017-04-18T05:50:35.444Z,1022.58
2017-04-18T05:51:01.009Z,1022.57
2017-04-18T05:51:26.666Z,1022.56
2017-04-18T05:51:52.241Z,1022.57
2017-04-18T05:52:17.794Z,1022.58
2017-04-18T05:52:43.510Z,1022.56
2017-04-18T05:53:09.081Z,1022.57
2017-04-18T05:53:34.632Z,1022.61
2017-04-18T05:54:00.252Z,1022.59
2017-04-18T05:54:25.823Z,1022.63
2017-04-18T05:54:51.383Z,1022.6
2017-04-18T05:55:16.953Z,1022.6
2017-04-18T05:55:42.677Z,1022.58
2017-04-18T05:56:08.233Z,1022.6
2017-04-18T05:56:33.799Z,1022.6
2017-04-18T05:57:32.222Z,1022.64
2017-04-18T05:57:57.793Z,1022.66
2017-04-18T05:58:23.365Z,1022.61
2017-04-18T05:58:48.919Z,1022.65
2017-04-18T05:59:14.472Z,1022.67
2017-04-18T05:59:40.072Z,1022.65
2017-04-18T06:00:05.644Z,1022.62
2017-04-18T06:00:31.212Z,1022.64
2017-04-18T06:01:39.795Z,1022.66
2017-04-18T06:02:05.354Z,1022.68
2017-04-18T06:02:30.903Z,1022.7
2017-04-18T06:02:56.480Z,1022.68
2017-04-18T06:03:22.052Z,1022.7
2017-04-18T06:03:47.683Z,1022.72
2017-04-18T06:04:13.274Z,1022.71
2017-04-18T06:04:38.828Z,1022.75
2017-04-18T06:05:04.381Z,1022.7
2017-04-18T06:05:29.940Z,1022.72
2017-04-18T06:05:55.523Z,1022.76
2017-04-18T06:06:21.093Z,1022.78
2017-04-18T06:06:46.680Z,1022.78
2017-04-18T06:07:12.233Z,1022.79
2017-04-18T06:07:37.814Z,1022.77
2017-04-18T06:08:03.375Z,1022.84
2017-04-18T06:08:28.933Z,1022.85
2017-04-18T06:08:54.577Z,1022.83
2017-04-18T06:09:20.173Z,1022.84
2017-04-18T06:09:45.732Z,1022.87
2017-04-18T06:10:11.284Z,1022.88
2017-04-18T06:10:36.877Z,1022.87
2017-04-18T06:11:02.431Z,1022.88
2017-04-18T06:11:27.993Z,1022.86
2017-04-18T06:11:53.569Z,1022.9
2017-04-18T06:12:19.130Z,1022.89
2017-04-18T06:12:44.712Z,1022.89
2017-04-18T06:13:10.373Z,1022.88
2017-04-18T06:13:35.942Z,1022.9
2017-04-18T06:14:01.532Z,1022.89
2017-04-18T06:14:27.155Z,1022.89
2017-04-18T06:14:52.708Z,1022.91
2017-04-18T06:15:18.314Z,1022.92
2017-04-18T06:15:43.894Z,1022.93
2017-04-18T06:16:09.993Z,1022.97
2017-04-18T06:16:35.727Z,1022.97
2017-04-18T06:17:01.288Z,1022.94
2017-04-18T06:17:26.863Z,1023.01
2017-04-18T06:17:52.461Z,1023.01
2017-04-18T06:18:18.128Z,1023
2017-04-18T06:18:43.741Z,1023.01
2017-04-18T06:19:09.281Z,1022.98
2017-04-18T06:19:34.842Z,1023.04
2017-04-18T06:20:00.405Z,1023.05
2017-04-18T06:20:25.970Z,1023.06
2017-04-18T06:20:51.675Z,1023.08
2017-04-18T06:21:17.240Z,1023.08
2017-04-18T06:21:42.820Z,1023.08
2017-04-18T06:22:08.499Z,1023.04
2017-04-18T06:22:34.069Z,1023.09
2017-04-18T06:22:59.620Z,1023.07
2017-04-18T06:23:25.194Z,1023.08
2017-04-18T06:23:50.789Z,1023.1
2017-04-18T06:24:16.425Z,1023.09
2017-04-18T06:24:42.018Z,1023.11
2017-04-18T06:25:07.591Z,1023.11
2017-04-18T06:25:33.267Z,1023.12
2017-04-18T06:25:58.817Z,1023.12
2017-04-18T06:26:24.434Z,1023.11
2017-04-18T06:26:50.001Z,1023.12
2017-04-18T06:27:15.541Z,1023.17
2017-04-18T06:27:41.096Z,1023.16
2017-04-18T06:28:06.666Z,1023.13
2017-04-18T06:28:32.304Z,1023.15
2017-04-18T06:28:57.875Z,1023.18
2017-04-18T06:29:23.442Z,1023.13
2017-04-18T06:29:48.999Z,1023.2
2017-04-18T06:30:14.575Z,1023.18
2017-04-18T06:30:40.207Z,1023.15
2017-04-18T06:31:05.791Z,1023.18
2017-04-18T06:31:31.504Z,1023.23
2017-04-18T06:31:57.081Z,1023.23
2017-04-18T06:32:22.651Z,1023.23
2017-04-18T06:32:48.251Z,1023.21
2017-04-18T06:33:13.851Z,1023.26
2017-04-18T06:33:39.426Z,1023.2
2017-04-18T06:34:05.001Z,1023.24
2017-04-18T06:34:30.690Z,1023.26
2017-04-18T06:34:56.346Z,1023.23
2017-04-18T06:35:21.910Z,1023.26
2017-04-18T06:35:47.474Z,1023.27
2017-04-18T06:36:13.055Z,1023.31
2017-04-18T06:36:38.641Z,1023.31
2017-04-18T06:37:04.213Z,1023.27
2017-04-18T06:37:29.762Z,1023.3
2017-04-18T06:37:55.329Z,1023.33
2017-04-18T06:38:20.895Z,1023.36
2017-04-18T06:38:46.459Z,1023.34
2017-04-18T06:39:12.032Z,1023.37
2017-04-18T06:39:37.620Z,1023.38
2017-04-18T06:40:03.271Z,1023.34
2017-04-18T06:40:28.849Z,1023.34
2017-04-18T06:40:54.438Z,1023.39
2017-04-18T06:41:20.088Z,1023.4
2017-04-18T06:41:45.675Z,1023.43
2017-04-18T06:42:11.262Z,1023.4
2017-04-18T06:42:36.914Z,1023.42
2017-04-18T06:43:02.501Z,1023.43
2017-04-18T06:43:28.073Z,1023.41
2017-04-18T06:43:53.666Z,1023.43
2017-04-18T06:44:19.226Z,1023.46
2017-04-18T06:44:44.815Z,1023.47
2017-04-18T06:45:10.419Z,1023.45
2017-04-18T06:45:36.054Z,1023.49
2017-04-18T06:46:01.613Z,1023.49
2017-04-18T06:46:27.170Z,1023.5
2017-04-18T06:46:52.814Z,1023.49
2017-04-18T06:47:18.378Z,1023.47
2017-04-18T06:47:43.997Z,1023.51
2017-04-18T06:48:09.574Z,1023.52
2017-04-18T06:48:35.144Z,1023.51
2017-04-18T06:49:00.725Z,1023.56
2017-04-18T06:49:26.294Z,1023.55
2017-04-18T06:49:51.852Z,1023.56
2017-04-18T06:50:17.444Z,1023.58
2017-04-18T06:50:43.034Z,1023.62
2017-04-18T06:51:08.591Z,1023.6
2017-04-18T06:51:34.313Z,1023.61
2017-04-18T06:51:59.984Z,1023.59
2017-04-18T06:52:25.541Z,1023.63
2017-04-18T06:52:51.094Z,1023.61
2017-04-18T06:53:16.706Z,1023.67
2017-04-18T06:53:42.241Z,1023.64
2017-04-18T06:54:07.799Z,1023.67
2017-04-18T06:54:33.371Z,1023.68
2017-04-18T06:54:58.958Z,1023.71
2017-04-18T06:55:24.532Z,1023.7
2017-04-18T06:55:50.093Z,1023.71
2017-04-18T06:56:15.647Z,1023.73
2017-04-18T06:56:41.194Z,1023.75
2017-04-18T06:57:06.859Z,1023.75
2017-04-18T06:57:32.434Z,1023.75
2017-04-18T06:57:58.025Z,1023.75
2017-04-18T06:58:23.633Z,1023.76
2017-04-18T06:58:49.191Z,1023.77
2017-04-18T06:59:14.752Z,1023.78
2017-04-18T06:59:40.353Z,1023.8
2017-04-18T07:00:05.933Z,1023.81
2017-04-18T07:00:31.492Z,1023.82
2017-04-18T07:00:57.062Z,1023.85
2017-04-18T07:01:22.643Z,1023.87
2017-04-18T07:01:48.236Z,1023.85
2017-04-18T07:02:13.810Z,1023.88
2017-04-18T07:02:39.373Z,1023.85
2017-04-18T07:03:04.952Z,1023.89
2017-04-18T07:03:30.543Z,1023.88
2017-04-18T07:03:56.115Z,1023.9
2017-04-18T07:04:21.678Z,1023.91
2017-04-18T07:04:47.357Z,1023.92
2017-04-18T07:05:12.935Z,1023.89
2017-04-18T07:05:38.511Z,1023.95
2017-04-18T07:06:04.055Z,1023.94
2017-04-18T07:06:29.626Z,1023.93
2017-04-18T07:06:55.190Z,1023.97
2017-04-18T07:07:20.859Z,1023.95
2017-04-18T07:07:46.430Z,1023.98
2017-04-18T07:08:12.017Z,1023.98
2017-04-18T07:08:37.628Z,1023.96
2017-04-18T07:09:03.297Z,1023.97
2017-04-18T07:09:28.860Z,1024.01
2017-04-18T07:09:54.419Z,1024.01
2017-04-18T07:10:20.033Z,1024.03
2017-04-18T07:10:45.586Z,1024
2017-04-18T07:11:11.146Z,1024.03
2017-04-18T07:11:36.733Z,1024.04
2017-04-18T07:12:02.373Z,1024.04
2017-04-18T07:12:27.935Z,1024.1
2017-04-18T07:12:53.516Z,1024.1
2017-04-18T07:13:19.071Z,1024.06
2017-04-18T07:13:44.647Z,1024.1
2017-04-18T07:14:10.228Z,1024.11
2017-04-18T07:14:35.799Z,1024.1
2017-04-18T07:15:01.404Z,1024.11
2017-04-18T07:15:27.050Z,1024.09
2017-04-18T07:15:52.603Z,1024.14
2017-04-18T07:16:18.216Z,1024.07
2017-04-18T07:16:43.806Z,1024.12
2017-04-18T07:17:09.365Z,1024.18
2017-04-18T07:17:34.934Z,1024.15
2017-04-18T07:18:00.520Z,1024.13
2017-04-18T07:18:26.080Z,1024.15
2017-04-18T07:18:51.651Z,1024.21
2017-04-18T07:19:17.245Z,1024.22
2017-04-18T07:19:42.813Z,1024.17
2017-04-18T07:20:08.380Z,1024.24
2017-04-18T07:20:33.933Z,1024.14
2017-04-18T07:20:59.490Z,1024.25
2017-04-18T07:21:25.081Z,1024.22
2017-04-18T07:21:50.646Z,1024.24
2017-04-18T07:22:16.208Z,1024.28
2017-04-18T07:22:41.769Z,1024.26
2017-04-18T07:23:07.331Z,1024.25
2017-04-18T07:23:32.893Z,1024.26
2017-04-18T07:23:59.504Z,1024.24
2017-04-18T07:24:57.015Z,1024.29
2017-04-18T07:25:22.558Z,1024.3
2017-04-18T07:25:48.133Z,1024.29
2017-04-18T07:26:13.708Z,1024.3
2017-04-18T07:26:39.256Z,1024.33
2017-04-18T07:27:04.843Z,1024.34
2017-04-18T07:27:30.420Z,1024.33
2017-04-18T07:27:55.985Z,1024.35
2017-04-18T07:28:21.545Z,1024.35
2017-04-18T07:28:47.129Z,1024.35
2017-04-18T07:29:12.691Z,1024.39
2017-04-18T07:29:38.253Z,1024.38
2017-04-18T07:30:03.825Z,1024.38
2017-04-18T07:30:29.487Z,1024.4
2017-04-18T07:30:55.066Z,1024.38
2017-04-18T07:31:20.643Z,1024.4
2017-04-18T07:31:46.210Z,1024.39
2017-04-18T07:32:11.773Z,1024.39
2017-04-18T07:32:37.454Z,1024.44
2017-04-18T07:33:03.019Z,1024.44
2017-04-18T07:33:28.608Z,1024.43
2017-04-18T07:33:54.233Z,1024.44
2017-04-18T07:34:19.787Z,1024.43
2017-04-18T07:34:45.413Z,1024.5
2017-04-18T07:35:11.007Z,1024.5
2017-04-18T07:35:36.576Z,1024.46
2017-04-18T07:36:02.202Z,1024.48
2017-04-18T07:36:27.783Z,1024.47
2017-04-18T07:36:53.337Z,1024.47
2017-04-18T07:37:18.894Z,1024.45
2017-04-18T07:37:44.457Z,1024.45
2017-04-18T07:38:10.027Z,1024.44
2017-04-18T07:38:35.631Z,1024.45
2017-04-18T07:39:01.200Z,1024.44
2017-04-18T07:39:26.785Z,1024.46
2017-04-18T07:39:52.365Z,1024.47
2017-04-18T07:40:17.942Z,1024.49
2017-04-18T07:40:43.584Z,1024.51
2017-04-18T07:41:09.135Z,1024.47
2017-04-18T07:41:34.706Z,1024.53
2017-04-18T07:42:00.269Z,1024.51
2017-04-18T07:42:25.852Z,1024.55
2017-04-18T07:42:51.453Z,1024.57
2017-04-18T07:43:17.017Z,1024.54
2017-04-18T07:43:42.590Z,1024.55
2017-04-18T07:44:08.153Z,1024.53
2017-04-18T07:44:33.707Z,1024.56
2017-04-18T07:44:59.268Z,1024.59
2017-04-18T07:45:24.860Z,1024.6
2017-04-18T07:45:50.406Z,1024.54
2017-04-18T07:46:15.994Z,1024.6
2017-04-18T07:46:41.572Z,1024.64
2017-04-18T07:47:07.154Z,1024.62
2017-04-18T07:47:32.753Z,1024.62
2017-04-18T07:47:58.311Z,1024.68
2017-04-18T07:48:23.863Z,1024.66
2017-04-18T07:48:49.524Z,1024.69
2017-04-18T07:49:15.101Z,1024.66
2017-04-18T07:49:40.685Z,1024.65
2017-04-18T07:50:06.272Z,1024.72
2017-04-18T07:50:31.932Z,1024.7
2017-04-18T07:50:57.504Z,1024.74
2017-04-18T07:51:23.076Z,1024.69
2017-04-18T07:51:48.651Z,1024.74
2017-04-18T07:52:14.223Z,1024.71
2017-04-18T07:52:39.804Z,1024.72
2017-04-18T07:53:05.353Z,1024.72
2017-04-18T07:53:30.950Z,1024.78
2017-04-18T07:53:56.552Z,1024.68
2017-04-18T07:54:22.126Z,1024.81
2017-04-18T07:54:47.701Z,1024.75
2017-04-18T07:55:13.275Z,1024.8
2017-04-18T07:55:38.848Z,1024.72
2017-04-18T07:56:04.419Z,1024.78
2017-04-18T07:56:29.991Z,1024.8
2017-04-18T07:56:55.560Z,1024.79
2017-04-18T07:57:21.133Z,1024.85
2017-04-18T07:57:46.731Z,1024.82
2017-04-18T07:58:12.283Z,1024.89
2017-04-18T07:58:37.858Z,1024.82
2017-04-18T07:59:03.430Z,1024.86
2017-04-18T07:59:29.002Z,1024.89
2017-04-18T07:59:54.559Z,1024.89
2017-04-18T08:00:20.132Z,1024.89
2017-04-18T08:00:45.720Z,1024.94
2017-04-18T08:01:11.273Z,1024.9
2017-04-18T08:01:36.876Z,1024.9
2017-04-18T08:02:02.443Z,1024.91
2017-04-18T08:02:28.009Z,1025.02
2017-04-18T08:02:53.585Z,1024.96
2017-04-18T08:03:19.189Z,1024.97
2017-04-18T08:03:44.761Z,1024.97
2017-04-18T08:04:10.395Z,1025.01
2017-04-18T08:04:36.071Z,1025.02
2017-04-18T08:05:01.632Z,1024.96
2017-04-18T08:05:27.209Z,1025
2017-04-18T08:05:52.902Z,1025
2017-04-18T08:06:18.457Z,1025.05
2017-04-18T08:06:44.064Z,1024.99
2017-04-18T08:07:09.638Z,1025.07
2017-04-18T08:07:35.216Z,1025.07
2017-04-18T08:08:00.794Z,1025.03
2017-04-18T08:08:26.371Z,1025.12
2017-04-18T08:08:51.950Z,1025.1
2017-04-18T08:09:17.513Z,1025.12
2017-04-18T08:09:43.274Z,1025.14
2017-04-18T08:10:08.835Z,1025.08
2017-04-18T08:10:34.390Z,1025.16
2017-04-18T08:10:59.952Z,1025.16
2017-04-18T08:11:25.512Z,1025.15
2017-04-18T08:11:51.094Z,1025.15
2017-04-18T08:12:16.689Z,1025.14
2017-04-18T08:12:42.286Z,1025.23
2017-04-18T08:13:07.854Z,1025.24
2017-04-18T08:13:33.419Z,1025.18
2017-04-18T08:13:59.102Z,1025.22
2017-04-18T08:14:24.666Z,1025.16
2017-04-18T08:14:50.219Z,1025.2